createdAt,value
2019-03-20T00:01:22.284Z,102687.98
2019-03-20T00:06:24.991Z,102695.38
2019-03-20T00:11:27.672Z,102704.56
2019-03-20T00:16:30.371Z,102699.33
2019-03-20T00:21:33.077Z,102697.64
2019-03-20T00:26:35.801Z,102703.27
2019-03-20T00:31:38.510Z,102696.75
2019-03-20T00:36:41.195Z,102691.98
2019-03-20T00:41:43.923Z,102699.33
2019-03-20T00:46:46.614Z,102691.89
2019-03-20T00:51:49.308Z,102688.77
2019-03-20T00:56:52.008Z,102688.27
2019-03-20T01:01:54.702Z,102688.70
2019-03-20T01:06:57.401Z,102673.44
2019-03-20T01:12:00.103Z,102674.71
2019-03-20T01:17:02.800Z,102676.06
2019-03-20T01:22:05.496Z,102668.14
2019-03-20T01:27:08.212Z,102677.25
2019-03-20T01:32:10.997Z,102669.35
2019-03-20T01:37:13.682Z,102662.78
2019-03-20T01:42:16.408Z,102672.10
2019-03-20T01:47:19.092Z,102671.48
2019-03-20T01:52:21.780Z,102675.40
2019-03-20T01:57:24.470Z,102669.41
2019-03-20T02:02:27.170Z,102671.16
2019-03-20T02:07:29.957Z,102679.34
2019-03-20T02:12:32.755Z,102682.83
2019-03-20T02:17:35.441Z,102677.29
2019-03-20T02:22:38.139Z,102689.05
2019-03-20T02:27:40.862Z,102678.61
2019-03-20T02:32:43.590Z,102682.27
2019-03-20T02:37:46.299Z,102682.40
2019-03-20T02:42:48.984Z,102684.99
2019-03-20T02:47:51.689Z,102678.25
2019-03-20T02:52:54.415Z,102678.75
2019-03-20T02:57:57.239Z,102683.38
2019-03-20T03:02:59.943Z,102679.08
2019-03-20T03:08:02.677Z,102665.20
2019-03-20T03:13:05.403Z,102669.73
2019-03-20T03:18:08.113Z,102670.63
2019-03-20T03:23:10.878Z,102672.83
2019-03-20T03:28:13.676Z,102661.22
2019-03-20T03:33:16.385Z,102667.65
2019-03-20T03:38:19.066Z,102669.73
2019-03-20T03:43:24.173Z,102670.53
2019-03-20T03:48:26.398Z,102678.66
2019-03-20T03:53:37.772Z,102676.45
2019-03-20T03:58:40.978Z,102672.12
2019-03-20T04:03:43.777Z,102676.83
2019-03-20T04:08:46.524Z,102668.59
2019-03-20T04:13:49.302Z,102670.22
2019-03-20T04:18:52.083Z,102675.55
2019-03-20T04:23:54.906Z,102671.21
2019-03-20T04:28:57.715Z,102666.79
2019-03-20T04:34:00.505Z,102664.05
2019-03-20T04:39:05.794Z,102673.45
2019-03-20T04:44:08.519Z,102677.31
2019-03-20T04:49:11.249Z,102684.58
2019-03-20T04:54:13.984Z,102686.80
2019-03-20T04:59:16.721Z,102694.64
2019-03-20T05:04:19.437Z,102697.70
2019-03-20T05:09:22.149Z,102701.50
2019-03-20T05:14:24.851Z,102699.34
2019-03-20T05:19:27.551Z,102704.19
2019-03-20T05:24:30.279Z,102703.30
2019-03-20T05:29:32.983Z,102704.93
2019-03-20T05:34:35.691Z,102707.52
2019-03-20T05:39:38.406Z,102712.66
2019-03-20T05:44:41.101Z,102713.57
2019-03-20T05:49:46.063Z,102718.81
2019-03-20T05:54:48.895Z,102721.76
2019-03-20T05:59:51.635Z,102732.41
2019-03-20T06:04:54.369Z,102731.20
2019-03-20T06:09:57.067Z,102741.14
2019-03-20T06:14:59.789Z,102747.36
2019-03-20T06:20:02.766Z,102740.73
2019-03-20T06:25:06.025Z,102746.06
2019-03-20T06:30:12.556Z,102745.77
2019-03-20T06:35:15.399Z,102741.97
2019-03-20T06:40:18.130Z,102738.27
2019-03-20T06:45:20.963Z,102745.23
2019-03-20T06:50:23.684Z,102748.94
2019-03-20T06:55:26.968Z,102749.09
2019-03-20T07:01:23.818Z,102758.02
2019-03-20T07:06:51.441Z,102756.50
2019-03-20T07:11:54.368Z,102752.86
2019-03-20T07:16:57.412Z,102758.70
2019-03-20T07:22:00.133Z,102763.30
2019-03-20T07:27:02.833Z,102766.95
2019-03-20T07:32:05.590Z,102767.70
2019-03-20T07:37:08.640Z,102776.84
2019-03-20T07:42:11.355Z,102775.86
2019-03-20T07:47:14.081Z,102775.95
2019-03-20T07:52:16.802Z,102779.73
2019-03-20T07:57:19.519Z,102792.94
2019-03-20T08:02:22.233Z,102799.60
2019-03-20T08:07:24.964Z,102798.86
2019-03-20T08:12:27.762Z,102800.27
2019-03-20T08:17:30.584Z,102806.07
2019-03-20T08:22:33.339Z,102814.01
2019-03-20T08:27:36.070Z,102809.66
2019-03-20T08:32:38.818Z,102817.55
2019-03-20T08:37:41.583Z,102823.66
2019-03-20T08:42:44.328Z,102814.08
2019-03-20T08:47:47.088Z,102813.68
2019-03-20T08:52:49.962Z,102816.74
2019-03-20T08:57:52.689Z,102827.20
2019-03-20T09:02:55.466Z,102818.46
2019-03-20T09:07:58.242Z,102810.16
2019-03-20T09:13:00.984Z,102820.84
2019-03-20T09:18:03.922Z,102812.00
2019-03-20T09:23:06.691Z,102822.66
2019-03-20T09:28:09.421Z,102796.33
2019-03-20T09:33:12.153Z,102808.89
2019-03-20T09:38:14.856Z,102819.57
2019-03-20T09:43:17.571Z,102809.86
2019-03-20T09:48:20.293Z,102815.17
2019-03-20T09:53:23.066Z,102805.75
2019-03-20T09:58:25.785Z,102809.63
2019-03-20T10:03:28.533Z,102805.66
2019-03-20T10:08:31.268Z,102795.00
2019-03-20T10:13:34.017Z,102798.88
2019-03-20T10:18:36.772Z,102791.53
2019-03-20T10:23:39.542Z,102798.06
2019-03-20T10:28:42.285Z,102793.39
2019-03-20T10:33:45.012Z,102793.25
2019-03-20T10:38:48.801Z,102791.02
2019-03-20T10:43:52.440Z,102801.69
2019-03-20T10:48:56.374Z,102795.70
2019-03-20T10:53:59.239Z,102813.05
2019-03-20T10:59:01.994Z,102822.86
2019-03-20T11:04:04.715Z,102828.02
2019-03-20T11:09:17.771Z,102829.83
2019-03-20T11:14:12.457Z,102836.59
2019-03-20T11:19:15.183Z,102843.27
2019-03-20T11:24:17.894Z,102841.62
2019-03-20T11:29:21.712Z,102830.48
2019-03-20T11:34:24.850Z,102835.68
2019-03-20T11:39:29.941Z,102844.91
2019-03-20T11:44:32.221Z,102848.55
2019-03-20T11:49:34.952Z,102852.68
2019-03-20T11:54:37.679Z,102856.02
2019-03-20T11:59:40.414Z,102849.65
2019-03-20T12:04:43.130Z,102850.13
2019-03-20T12:09:45.844Z,102854.08
2019-03-20T12:14:48.587Z,102851.68
2019-03-20T12:19:51.348Z,102845.20
2019-03-20T12:24:54.057Z,102846.03
2019-03-20T12:29:56.766Z,102850.66
2019-03-20T12:34:59.480Z,102852.72
2019-03-20T12:40:02.350Z,102854.92
2019-03-20T12:45:08.691Z,102857.66
2019-03-20T12:50:11.461Z,102864.42
2019-03-20T12:55:14.499Z,102861.35
2019-03-20T13:00:19.443Z,102867.59
2019-03-20T13:05:22.242Z,102860.45
2019-03-20T13:10:25.004Z,102857.88
2019-03-20T13:15:27.731Z,102863.99
2019-03-20T13:20:30.469Z,102856.47
2019-03-20T13:25:33.269Z,102859.21
2019-03-20T13:30:58.597Z,102864.34
2019-03-20T13:36:01.307Z,102859.58
2019-03-20T13:41:04.144Z,102848.21
2019-03-20T13:46:06.849Z,102852.32
2019-03-20T13:51:09.550Z,102851.73
2019-03-20T13:56:12.270Z,102842.62
2019-03-20T14:01:14.989Z,102844.24
2019-03-20T14:06:17.699Z,102853.03
2019-03-20T14:11:20.426Z,102853.00
2019-03-20T14:16:23.139Z,102854.79
2019-03-20T14:21:25.853Z,102855.23
2019-03-20T14:26:28.578Z,102852.09
2019-03-20T14:31:31.315Z,102843.51
2019-03-20T14:36:34.026Z,102829.98
2019-03-20T14:41:36.744Z,102834.43
2019-03-20T14:46:39.469Z,102838.82
2019-03-20T14:51:42.279Z,102833.25
2019-03-20T14:56:45.036Z,102825.43
2019-03-20T15:01:47.967Z,102823.20
2019-03-20T15:06:50.667Z,102827.59
2019-03-20T15:11:53.359Z,102821.17
2019-03-20T15:16:56.067Z,102821.59
2019-03-20T15:21:58.815Z,102829.31
2019-03-20T15:27:01.967Z,102819.02
2019-03-20T15:32:04.695Z,102821.19
2019-03-20T15:37:07.438Z,102813.23
2019-03-20T15:42:10.165Z,102806.55
2019-03-20T15:47:12.867Z,102808.58
2019-03-20T15:52:15.593Z,102814.50
2019-03-20T15:57:18.339Z,102819.41
2019-03-20T16:02:21.058Z,102819.53
2019-03-20T16:07:23.791Z,102829.18
2019-03-20T16:12:26.511Z,102828.45
2019-03-20T16:17:29.229Z,102835.94
2019-03-20T16:22:31.945Z,102833.37
2019-03-20T16:27:34.648Z,102830.37
2019-03-20T16:32:37.450Z,102832.05
2019-03-20T16:37:40.145Z,102818.52
2019-03-20T16:42:42.868Z,102821.58
2019-03-20T16:47:45.585Z,102840.41
2019-03-20T16:52:48.294Z,102836.10
2019-03-20T16:57:51.139Z,102819.03
2019-03-20T17:02:53.883Z,102826.95
2019-03-20T17:07:58.600Z,102842.84
2019-03-20T17:13:01.437Z,102842.97
2019-03-20T17:18:04.707Z,102847.81
2019-03-20T17:23:07.967Z,102851.51
2019-03-20T17:28:10.957Z,102845.00
2019-03-20T17:33:13.778Z,102852.05
2019-03-20T17:38:16.479Z,102853.00
2019-03-20T17:43:19.226Z,102858.75
2019-03-20T17:48:21.936Z,102859.23
2019-03-20T17:53:24.637Z,102864.13
2019-03-20T17:58:27.351Z,102873.76
2019-03-20T18:03:30.068Z,102883.45
2019-03-20T18:08:32.770Z,102879.64
2019-03-20T18:13:36.464Z,102892.97
2019-03-20T18:18:39.220Z,102900.42
2019-03-20T18:23:41.982Z,102905.20
2019-03-20T18:28:44.722Z,102907.38
2019-03-20T18:33:47.458Z,102921.84
2019-03-20T18:38:50.177Z,102911.85
2019-03-20T18:43:52.989Z,102931.09
2019-03-20T18:48:55.802Z,102932.45
2019-03-20T18:53:59.065Z,102927.16
2019-03-20T18:59:02.814Z,102930.27
2019-03-20T19:04:05.702Z,102930.72
2019-03-20T19:09:09.024Z,102928.50
2019-03-20T19:14:11.833Z,102927.66
2019-03-20T19:19:14.611Z,102929.41
2019-03-20T19:24:17.315Z,102930.73
2019-03-20T19:29:20.040Z,102878.33
2019-03-20T19:34:22.772Z,102928.96
2019-03-20T19:39:25.469Z,102934.67
2019-03-20T19:44:28.184Z,102937.27
2019-03-20T19:49:30.916Z,102941.63
2019-03-20T19:54:33.836Z,102931.56
2019-03-20T19:59:36.576Z,102939.88
2019-03-20T20:04:39.282Z,102932.88
2019-03-20T20:09:42.007Z,102937.69
2019-03-20T20:14:45.597Z,102942.94
2019-03-20T20:19:50.245Z,102925.39
2019-03-20T20:24:53.029Z,102930.70
2019-03-20T20:29:55.734Z,102933.80
2019-03-20T20:34:58.439Z,102941.24
2019-03-20T20:40:01.147Z,102950.43
2019-03-20T20:45:04.256Z,102949.95
2019-03-20T20:50:07.389Z,102949.95
2019-03-20T20:55:11.386Z,102947.75
2019-03-20T21:00:17.173Z,102950.41
2019-03-20T21:05:19.911Z,102947.80
2019-03-20T21:10:22.708Z,102934.28
2019-03-20T21:15:46.887Z,102934.71
2019-03-20T21:20:50.441Z,102944.79
2019-03-20T21:25:54.350Z,102952.23
2019-03-20T21:31:18.678Z,102951.82
2019-03-20T21:37:02.933Z,102955.73
2019-03-20T21:43:06.858Z,102966.67
2019-03-20T21:48:05.341Z,102971.95
2019-03-20T21:53:10.855Z,102977.14
2019-03-20T21:58:36.716Z,102980.23
2019-03-20T22:03:40.519Z,102985.91
2019-03-20T22:08:44.035Z,102987.65
2019-03-20T22:13:54.270Z,102985.95
2019-03-20T22:19:44.252Z,102979.83
2019-03-20T22:25:38.074Z,102987.27
2019-03-20T22:30:41.593Z,102986.41
2019-03-20T22:36:13.225Z,102982.47
2019-03-20T22:42:24.630Z,102996.88
2019-03-20T22:48:38.899Z,102998.63
2019-03-20T22:55:00.081Z,102998.63
2019-03-20T23:00:04.852Z,102993.84
2019-03-20T23:05:09.215Z,102992.53
2019-03-20T23:10:13.880Z,102988.59
2019-03-20T23:15:17.601Z,102982.43
2019-03-20T23:20:23.188Z,102983.74
2019-03-20T23:25:26.712Z,102987.27
2019-03-20T23:30:30.309Z,102982.43
2019-03-20T23:35:33.848Z,102982.86
2019-03-20T23:40:37.368Z,102988.50
2019-03-20T23:45:40.894Z,102980.20
2019-03-20T23:50:44.458Z,102986.77
2019-03-20T23:55:48.017Z,102982.39
